createdAt,value
2019-01-15T00:00:23.365Z,10.27
2019-01-15T00:03:27.638Z,9.00
2019-01-15T00:06:31.889Z,12.50
2019-01-15T00:09:36.209Z,13.87
2019-01-15T00:12:40.502Z,6.43
2019-01-15T00:15:44.778Z,7.33
2019-01-15T00:18:49.181Z,12.80
2019-01-15T00:21:53.512Z,9.93
2019-01-15T00:24:57.880Z,11.43
2019-01-15T00:28:02.184Z,14.00
2019-01-15T00:31:06.427Z,12.40
2019-01-15T00:34:10.795Z,8.60
2019-01-15T00:37:15.181Z,14.37
2019-01-15T00:40:19.633Z,14.30
2019-01-15T00:43:24.001Z,10.73
2019-01-15T00:46:28.252Z,10.23
2019-01-15T00:49:32.581Z,6.30
2019-01-15T00:52:36.872Z,14.93
2019-01-15T00:55:41.166Z,9.60
2019-01-15T00:58:45.401Z,7.37
2019-01-15T01:01:49.857Z,8.03
2019-01-15T01:04:54.200Z,13.90
2019-01-15T01:07:58.458Z,12.80
2019-01-15T01:11:02.775Z,10.30
2019-01-15T01:14:07.558Z,14.60
2019-01-15T01:17:11.887Z,9.43
2019-01-15T01:20:19.080Z,18.73
2019-01-15T01:23:23.437Z,14.50
2019-01-15T01:26:27.770Z,14.60
2019-01-15T01:29:32.082Z,11.60
2019-01-15T01:32:36.462Z,14.33
2019-01-15T01:35:40.787Z,17.10
2019-01-15T01:38:45.080Z,14.40
2019-01-15T01:41:49.422Z,14.27
2019-01-15T01:44:53.682Z,12.00
2019-01-15T01:47:58.029Z,12.80
2019-01-15T01:51:02.356Z,13.30
2019-01-15T01:54:06.645Z,13.03
2019-01-15T01:57:10.996Z,17.03
2019-01-15T02:00:19.907Z,9.40
2019-01-15T02:03:24.262Z,13.23
2019-01-15T02:06:28.586Z,15.60
2019-01-15T02:09:32.942Z,13.87
2019-01-15T02:12:37.376Z,13.03
2019-01-15T02:15:41.645Z,8.47
2019-01-15T02:18:45.930Z,5.77
2019-01-15T02:21:50.252Z,8.47
2019-01-15T02:24:54.545Z,10.60
2019-01-15T02:27:58.922Z,17.27
2019-01-15T02:31:03.220Z,12.23
2019-01-15T02:34:07.567Z,11.87
2019-01-15T02:37:11.902Z,10.60
2019-01-15T02:40:16.362Z,9.47
2019-01-15T02:43:20.678Z,9.53
2019-01-15T02:46:25.126Z,9.63
2019-01-15T02:49:29.782Z,9.30
2019-01-15T02:52:34.075Z,15.83
2019-01-15T02:55:38.370Z,10.27
2019-01-15T02:58:42.616Z,11.47
2019-01-15T03:01:46.900Z,10.37
2019-01-15T03:04:51.185Z,14.07
2019-01-15T03:07:55.429Z,13.60
2019-01-15T03:10:59.717Z,13.93
2019-01-15T03:14:04.127Z,9.63
2019-01-15T03:17:08.410Z,4.47
2019-01-15T03:20:13.195Z,9.30
2019-01-15T03:23:17.451Z,16.10
2019-01-15T03:26:21.750Z,7.77
2019-01-15T03:29:26.005Z,9.07
2019-01-15T03:32:30.330Z,12.30
2019-01-15T03:35:34.690Z,9.93
2019-01-15T03:38:38.990Z,9.93
2019-01-15T03:41:43.306Z,12.83
2019-01-15T03:44:47.619Z,5.90
2019-01-15T03:47:52.005Z,11.67
2019-01-15T03:50:56.277Z,5.47
2019-01-15T03:54:00.528Z,9.67
2019-01-15T03:57:04.886Z,11.43
2019-01-15T04:00:13.420Z,9.07
2019-01-15T04:03:17.849Z,19.17
2019-01-15T04:06:22.145Z,14.90
2019-01-15T04:09:26.564Z,10.97
2019-01-15T04:12:31.027Z,6.23
2019-01-15T04:15:35.351Z,12.00
2019-01-15T04:18:39.785Z,6.57
2019-01-15T04:21:44.119Z,11.63
2019-01-15T04:24:48.396Z,8.50
2019-01-15T04:27:52.701Z,9.60
2019-01-15T04:30:57.000Z,15.53
2019-01-15T04:34:01.461Z,11.13
2019-01-15T04:37:06.027Z,9.97
2019-01-15T04:40:13.162Z,9.80
2019-01-15T04:43:19.926Z,10.33
2019-01-15T04:46:23.489Z,7.60
2019-01-15T04:49:27.966Z,7.40
2019-01-15T04:52:32.460Z,12.10
2019-01-15T04:55:36.824Z,10.10
2019-01-15T04:58:43.854Z,5.50
2019-01-15T05:01:48.285Z,8.80
2019-01-15T05:04:52.636Z,11.00
2019-01-15T05:07:56.937Z,10.50
2019-01-15T05:11:01.309Z,10.73
2019-01-15T05:14:05.696Z,11.70
2019-01-15T05:17:09.968Z,15.77
2019-01-15T05:20:16.124Z,10.57
2019-01-15T05:23:20.565Z,11.70
2019-01-15T05:26:24.817Z,6.70
2019-01-15T05:29:29.183Z,10.50
2019-01-15T05:32:33.442Z,8.67
2019-01-15T05:35:37.773Z,12.20
2019-01-15T05:38:42.140Z,7.43
2019-01-15T05:41:46.444Z,11.57
2019-01-15T05:44:50.939Z,10.30
2019-01-15T05:47:56.259Z,6.80
2019-01-15T05:51:17.627Z,8.50
2019-01-15T05:54:21.900Z,11.60
2019-01-15T05:57:26.188Z,7.80
2019-01-15T06:00:30.448Z,10.27
2019-01-15T06:03:34.745Z,13.37
2019-01-15T06:06:39.065Z,13.17
2019-01-15T06:09:43.338Z,17.80
2019-01-15T06:12:47.590Z,9.93
2019-01-15T06:15:51.907Z,10.27
2019-01-15T06:18:56.185Z,9.33
2019-01-15T06:22:00.522Z,13.50
2019-01-15T06:25:05.688Z,11.23
2019-01-15T06:28:10.071Z,12.13
2019-01-15T06:31:15.164Z,14.60
2019-01-15T06:34:19.649Z,6.90
2019-01-15T06:37:24.014Z,12.03
2019-01-15T06:40:28.414Z,10.27
2019-01-15T06:43:32.736Z,17.97
2019-01-15T06:46:37.027Z,20.83
2019-01-15T06:49:41.402Z,21.73
2019-01-15T06:52:45.788Z,20.67
2019-01-15T06:55:50.073Z,22.33
2019-01-15T06:58:54.384Z,20.37
2019-01-15T07:01:59.879Z,20.13
2019-01-15T07:05:04.374Z,18.17
2019-01-15T07:08:08.656Z,23.53
2019-01-15T07:11:13.015Z,27.97
2019-01-15T07:14:17.335Z,36.17
2019-01-15T07:17:21.651Z,24.50
2019-01-15T07:20:25.915Z,22.80
2019-01-15T07:23:30.248Z,31.50
2019-01-15T07:26:34.531Z,30.97
2019-01-15T07:29:38.850Z,30.43
2019-01-15T07:32:43.165Z,26.63
2019-01-15T07:35:47.474Z,31.40
2019-01-15T07:38:51.825Z,28.73
2019-01-15T07:41:56.119Z,30.20
2019-01-15T07:45:00.412Z,36.63
2019-01-15T07:48:04.716Z,30.93
2019-01-15T07:51:09.000Z,34.37
2019-01-15T07:54:13.345Z,29.17
2019-01-15T07:57:17.690Z,27.43
2019-01-15T08:00:22.146Z,30.23
2019-01-15T08:03:26.694Z,34.57
2019-01-15T08:06:31.039Z,29.87
2019-01-15T08:09:35.348Z,35.07
2019-01-15T08:12:39.715Z,42.10
2019-01-15T08:15:44.074Z,35.53
2019-01-15T08:18:48.350Z,34.60
2019-01-15T08:21:52.665Z,40.07
2019-01-15T08:24:56.958Z,34.13
2019-01-15T08:28:01.376Z,41.50
2019-01-15T08:31:05.733Z,49.87
2019-01-15T08:34:10.033Z,45.87
2019-01-15T08:37:14.419Z,45.67
2019-01-15T08:40:18.812Z,38.37
2019-01-15T08:43:23.134Z,34.10
2019-01-15T08:46:27.448Z,41.33
2019-01-15T08:49:31.772Z,38.40
2019-01-15T08:52:36.053Z,43.13
2019-01-15T08:55:40.381Z,38.83
2019-01-15T08:58:44.682Z,42.40
2019-01-15T09:01:49.010Z,39.13
2019-01-15T09:04:53.389Z,44.93
2019-01-15T09:07:57.776Z,41.90
2019-01-15T09:11:02.101Z,52.90
2019-01-15T09:14:06.644Z,43.17
2019-01-15T09:17:11.285Z,40.40
2019-01-15T09:20:17.560Z,46.97
2019-01-15T09:23:21.969Z,49.03
2019-01-15T09:26:26.419Z,45.77
2019-01-15T09:29:30.754Z,51.00
2019-01-15T09:32:35.084Z,47.57
2019-01-15T09:35:39.438Z,48.80
2019-01-15T09:38:43.773Z,47.00
2019-01-15T09:41:48.154Z,45.80
2019-01-15T09:44:52.492Z,44.70
2019-01-15T09:48:15.455Z,49.73
2019-01-15T09:51:19.788Z,60.33
2019-01-15T09:54:24.130Z,54.10
2019-01-15T09:57:28.445Z,51.37
2019-01-15T10:00:32.994Z,53.50
2019-01-15T10:03:37.484Z,50.70
2019-01-15T10:06:42.145Z,56.93
2019-01-15T10:09:46.834Z,44.07
2019-01-15T10:12:51.243Z,51.30
2019-01-15T10:15:55.595Z,50.83
2019-01-15T10:18:59.902Z,55.70
2019-01-15T10:22:04.898Z,48.20
2019-01-15T10:25:10.960Z,51.10
2019-01-15T10:28:15.477Z,45.07
2019-01-15T10:32:01.973Z,50.40
2019-01-15T10:35:24.274Z,42.10
2019-01-15T10:38:30.438Z,43.13
2019-01-15T10:41:34.869Z,49.50
2019-01-15T10:44:39.171Z,45.60
2019-01-15T10:47:46.145Z,48.57
2019-01-15T10:50:50.556Z,48.20
2019-01-15T10:53:54.873Z,48.73
2019-01-15T10:56:59.254Z,45.50
2019-01-15T11:00:04.760Z,41.23
2019-01-15T11:03:09.172Z,50.67
2019-01-15T11:06:13.650Z,46.67
2019-01-15T11:09:18.030Z,42.47
2019-01-15T11:12:22.341Z,38.77
2019-01-15T11:15:26.641Z,47.13
2019-01-15T11:18:31.075Z,46.87
2019-01-15T11:21:35.368Z,46.13
2019-01-15T11:24:39.744Z,54.33
2019-01-15T11:27:44.049Z,47.77
2019-01-15T11:30:48.339Z,50.87
2019-01-15T11:33:53.231Z,53.90
2019-01-15T11:36:57.517Z,42.73
2019-01-15T11:40:01.983Z,37.00
2019-01-15T11:43:06.363Z,45.13
2019-01-15T11:46:10.810Z,41.10
2019-01-15T11:49:15.197Z,43.60
2019-01-15T11:52:22.534Z,37.77
2019-01-15T11:55:26.967Z,40.70
2019-01-15T11:58:31.277Z,40.97
2019-01-15T12:01:44.624Z,37.13
2019-01-15T12:05:07.869Z,37.50
2019-01-15T12:08:31.369Z,36.90
2019-01-15T12:11:55.742Z,40.60
2019-01-15T12:15:34.003Z,36.40
2019-01-15T12:18:57.249Z,35.10
2019-01-15T12:22:35.669Z,35.20
2019-01-15T12:25:47.043Z,34.30
2019-01-15T12:29:13.349Z,34.83
2019-01-15T12:32:51.797Z,35.50
2019-01-15T12:36:19.442Z,34.87
2019-01-15T12:39:48.102Z,31.20
2019-01-15T12:43:17.264Z,26.03
2019-01-15T12:46:38.899Z,39.03
2019-01-15T12:50:00.883Z,26.47
2019-01-15T12:53:24.037Z,36.90
2019-01-15T12:56:42.369Z,25.40
2019-01-15T13:00:04.214Z,28.27
2019-01-15T13:03:33.319Z,25.90
2019-01-15T13:07:02.714Z,26.33
2019-01-15T13:10:27.178Z,24.90
2019-01-15T13:13:53.532Z,26.43
2019-01-15T13:17:25.925Z,22.17
2019-01-15T13:20:49.925Z,25.20
2019-01-15T13:24:11.392Z,25.60
2019-01-15T13:27:37.377Z,23.80
2019-01-15T13:30:55.797Z,26.27
2019-01-15T13:34:30.843Z,22.47
2019-01-15T13:37:54.097Z,23.93
2019-01-15T13:41:22.644Z,27.27
2019-01-15T13:44:45.915Z,22.57
2019-01-15T13:48:07.561Z,21.17
2019-01-15T13:51:29.562Z,28.77
2019-01-15T13:55:02.152Z,21.23
2019-01-15T13:58:40.374Z,22.50
2019-01-15T14:02:05.276Z,20.90
2019-01-15T14:05:27.069Z,25.80
2019-01-15T14:08:46.984Z,25.37
2019-01-15T14:12:12.937Z,23.50
2019-01-15T14:15:39.059Z,26.53
2019-01-15T14:19:12.122Z,23.67
2019-01-15T14:22:33.663Z,18.57
2019-01-15T14:26:12.047Z,24.73
2019-01-15T14:29:33.220Z,25.30
2019-01-15T14:32:55.869Z,22.97
2019-01-15T14:36:16.647Z,21.03
2019-01-15T14:39:41.162Z,27.93
2019-01-15T14:43:07.581Z,26.20
2019-01-15T14:46:39.953Z,24.03
2019-01-15T14:50:01.890Z,27.93
2019-01-15T14:53:37.528Z,24.83
2019-01-15T14:57:15.615Z,26.90
2019-01-15T15:00:38.286Z,23.40
2019-01-15T15:04:10.419Z,27.40
2019-01-15T15:07:42.454Z,29.23
2019-01-15T15:11:04.119Z,25.37
2019-01-15T15:14:27.777Z,19.63
2019-01-15T15:17:57.253Z,23.07
2019-01-15T15:21:20.522Z,24.33
2019-01-15T15:24:43.734Z,28.03
2019-01-15T15:28:01.776Z,30.60
2019-01-15T15:31:27.849Z,29.00
2019-01-15T15:34:46.899Z,24.73
2019-01-15T15:38:05.624Z,23.93
2019-01-15T15:41:23.024Z,21.73
2019-01-15T15:45:01.249Z,20.47
2019-01-15T15:48:18.886Z,28.23
2019-01-15T15:52:00.298Z,23.83
2019-01-15T15:55:26.702Z,23.00
2019-01-15T15:58:45.363Z,26.63
2019-01-15T16:02:26.801Z,25.77
2019-01-15T16:05:48.303Z,23.33
2019-01-15T16:09:12.852Z,21.33
2019-01-15T16:12:30.449Z,27.30
2019-01-15T16:16:00.228Z,20.60
2019-01-15T16:19:25.269Z,25.00
2019-01-15T16:22:54.396Z,21.10
2019-01-15T16:26:29.576Z,29.73
2019-01-15T16:29:52.853Z,31.47
2019-01-15T16:33:16.178Z,24.47
2019-01-15T16:36:44.911Z,27.60
2019-01-15T16:40:23.364Z,25.90
2019-01-15T16:43:49.542Z,22.70
2019-01-15T16:47:15.993Z,22.83
2019-01-15T16:50:39.297Z,26.40
2019-01-15T16:54:02.569Z,23.83
2019-01-15T16:57:40.638Z,23.60
2019-01-15T17:01:02.513Z,27.77
2019-01-15T17:04:17.343Z,28.10
2019-01-15T17:07:39.272Z,24.00
2019-01-15T17:11:00.919Z,25.43
2019-01-15T17:14:20.262Z,24.70
2019-01-15T17:17:42.313Z,27.93
2019-01-15T17:21:04.298Z,33.77
2019-01-15T17:24:22.112Z,26.73
2019-01-15T17:27:48.408Z,27.60
2019-01-15T17:31:17.546Z,26.57
2019-01-15T17:34:50.383Z,29.27
2019-01-15T17:38:16.750Z,27.43
2019-01-15T17:41:40.083Z,28.90
2019-01-15T17:44:54.692Z,33.40
2019-01-15T17:48:21.462Z,24.80
2019-01-15T17:51:40.461Z,34.77
2019-01-15T17:54:53.857Z,33.10
2019-01-15T17:58:20.127Z,32.40
2019-01-15T18:01:47.563Z,34.90
2019-01-15T18:05:17.491Z,29.53
2019-01-15T18:08:49.603Z,36.07
2019-01-15T18:12:12.974Z,28.50
2019-01-15T18:15:44.399Z,32.13
2019-01-15T18:19:07.701Z,33.40
2019-01-15T18:22:28.176Z,32.17
2019-01-15T18:25:48.468Z,32.03
2019-01-15T18:29:20.123Z,32.73
2019-01-15T18:32:49.425Z,38.00
2019-01-15T18:36:11.099Z,37.23
2019-01-15T18:39:35.997Z,37.70
2019-01-15T18:42:57.678Z,34.50
2019-01-15T18:46:29.360Z,36.63
2019-01-15T18:49:53.223Z,42.33
2019-01-15T18:53:12.307Z,34.13
2019-01-15T18:56:52.144Z,37.83
2019-01-15T19:00:15.420Z,48.20
2019-01-15T19:03:41.863Z,40.47
2019-01-15T19:07:13.342Z,39.83
2019-01-15T19:10:34.312Z,41.90
2019-01-15T19:13:55.965Z,43.00
2019-01-15T19:17:36.411Z,42.00
2019-01-15T19:21:05.460Z,42.43
2019-01-15T19:24:33.404Z,39.17
2019-01-15T19:27:59.430Z,38.20
2019-01-15T19:31:21.189Z,38.70
2019-01-15T19:34:36.998Z,33.90
2019-01-15T19:37:58.682Z,31.80
2019-01-15T19:41:30.007Z,34.33
2019-01-15T19:44:53.236Z,37.17
2019-01-15T19:48:22.597Z,37.97
2019-01-15T19:51:48.493Z,36.60
2019-01-15T19:55:10.186Z,39.90
2019-01-15T19:58:31.791Z,36.27
2019-01-15T20:01:57.841Z,40.63
2019-01-15T20:05:15.839Z,38.17
2019-01-15T20:08:51.085Z,36.37
2019-01-15T20:12:14.438Z,38.47
2019-01-15T20:15:38.169Z,36.93
2019-01-15T20:18:58.862Z,38.77
2019-01-15T20:22:22.300Z,35.40
2019-01-15T20:25:48.592Z,34.10
2019-01-15T20:29:26.763Z,35.70
2019-01-15T20:32:48.602Z,38.13
2019-01-15T20:36:20.897Z,35.40
2019-01-15T20:39:53.157Z,36.73
2019-01-15T20:43:14.842Z,39.93
2019-01-15T20:46:40.898Z,33.33
2019-01-15T20:50:02.502Z,34.87
2019-01-15T20:53:37.861Z,35.07
2019-01-15T20:57:19.012Z,38.83
2019-01-15T21:00:54.396Z,33.70
2019-01-15T21:04:20.647Z,36.00
2019-01-15T21:07:42.404Z,36.40
2019-01-15T21:11:11.631Z,36.13
2019-01-15T21:14:39.392Z,37.80
2019-01-15T21:18:10.662Z,37.77
2019-01-15T21:21:34.567Z,40.90
2019-01-15T21:24:51.283Z,39.83
2019-01-15T21:28:05.927Z,45.47
2019-01-15T21:31:21.268Z,42.20
2019-01-15T21:34:59.773Z,46.37
2019-01-15T21:38:17.986Z,42.10
2019-01-15T21:41:38.367Z,48.30
2019-01-15T21:45:04.610Z,45.77
2019-01-15T21:48:43.017Z,46.50
2019-01-15T21:52:21.356Z,47.03
2019-01-15T21:55:56.910Z,43.77
2019-01-15T21:59:22.876Z,45.13
2019-01-15T22:02:52.222Z,43.73
2019-01-15T22:06:21.533Z,47.77
2019-01-15T22:09:53.663Z,44.80
2019-01-15T22:13:19.706Z,41.43
2019-01-15T22:16:50.407Z,42.00
2019-01-15T22:20:12.006Z,44.70
2019-01-15T22:23:33.565Z,38.73
2019-01-15T22:26:55.560Z,44.17
2019-01-15T22:30:30.651Z,51.60
2019-01-15T22:33:46.381Z,49.07
2019-01-15T22:37:18.603Z,57.47
2019-01-15T22:40:34.607Z,48.33
2019-01-15T22:43:50.500Z,49.00
2019-01-15T22:47:22.851Z,53.17
2019-01-15T22:50:49.156Z,52.50
2019-01-15T22:54:03.059Z,51.53
2019-01-15T22:57:22.161Z,52.73
2019-01-15T23:00:55.303Z,58.20
2019-01-15T23:04:24.422Z,53.00
2019-01-15T23:07:53.810Z,52.37
2019-01-15T23:11:33.274Z,52.03
2019-01-15T23:14:59.837Z,50.80
2019-01-15T23:18:33.060Z,52.83
2019-01-15T23:21:54.742Z,53.83
2019-01-15T23:25:23.825Z,51.30
2019-01-15T23:28:46.985Z,51.10
2019-01-15T23:32:00.520Z,54.47
2019-01-15T23:35:39.890Z,42.33
2019-01-15T23:39:06.261Z,50.80
2019-01-15T23:42:28.167Z,44.13
2019-01-15T23:45:50.315Z,45.40
2019-01-15T23:49:16.906Z,46.23
2019-01-15T23:52:38.473Z,44.40
2019-01-15T23:56:18.633Z,41.40
2019-01-15T23:59:43.027Z,48.30
